Terminal Aerodrome Forecast
Issued by NWS Quad Cities IA IL

Home | Current Version | Previous Version | Text Only | Print | Product List | Glossary On
Versions: 1 2 3 4 5 6 7 8 9 10 11 12 13 14 15 16 17 18
107
FTUS43 KDVN 222045 AAA
TAFDBQ
TAF AMD
KDBQ 222045Z 2221/2318 08012KT P6SM BKN250
     FM230300 07007KT P6SM BKN250=

USA.gov is the U.S. government's official web portal to all federal, state and local government web resources and services.